createdAt,value
2018-02-12T00:00:37.543Z,1.70
2018-02-12T00:03:05.166Z,1.73
2018-02-12T00:05:32.746Z,1.71
2018-02-12T00:08:00.306Z,1.72
2018-02-12T00:10:27.922Z,1.69
2018-02-12T00:12:55.486Z,1.67
2018-02-12T00:15:23.059Z,1.70
2018-02-12T00:17:50.640Z,1.74
2018-02-12T00:20:18.239Z,1.75
2018-02-12T00:22:45.915Z,1.75
2018-02-12T00:25:13.482Z,1.77
2018-02-12T00:27:41.064Z,1.78
2018-02-12T00:30:08.736Z,1.79
2018-02-12T00:32:36.298Z,1.81
2018-02-12T00:35:03.964Z,1.85
2018-02-12T00:37:31.527Z,1.89
2018-02-12T00:39:59.147Z,1.90
2018-02-12T00:42:26.714Z,1.89
2018-02-12T00:44:55.508Z,1.88
2018-02-12T00:47:23.177Z,1.89
2018-02-12T00:49:50.737Z,1.90
2018-02-12T00:52:18.298Z,1.93
2018-02-12T00:54:45.870Z,1.95
2018-02-12T00:57:13.495Z,1.94
2018-02-12T00:59:41.177Z,1.95
2018-02-12T01:02:08.754Z,1.96
2018-02-12T01:04:36.318Z,1.97
2018-02-12T01:07:03.967Z,1.99
2018-02-12T01:09:31.587Z,1.97
2018-02-12T01:11:59.218Z,2.00
2018-02-12T01:14:26.804Z,2.02
2018-02-12T01:16:54.431Z,2.05
2018-02-12T01:19:22.000Z,2.06
2018-02-12T01:21:49.625Z,2.07
2018-02-12T01:24:17.199Z,2.09
2018-02-12T01:26:44.757Z,2.12
2018-02-12T01:29:16.064Z,2.14
2018-02-12T01:31:43.679Z,2.18
2018-02-12T01:34:11.320Z,2.21
2018-02-12T01:36:38.890Z,2.19
2018-02-12T01:39:06.454Z,2.17
2018-02-12T01:41:34.075Z,2.13
2018-02-12T01:44:01.671Z,2.15
2018-02-12T01:46:29.258Z,2.20
2018-02-12T01:48:56.865Z,2.23
2018-02-12T01:51:24.513Z,2.24
2018-02-12T01:53:52.135Z,2.24
2018-02-12T01:56:19.767Z,2.26
2018-02-12T01:58:47.392Z,2.26
2018-02-12T02:01:15.027Z,2.25
2018-02-12T02:03:42.676Z,2.26
2018-02-12T02:06:10.238Z,2.24
2018-02-12T02:08:37.874Z,2.23
2018-02-12T02:11:05.442Z,2.22
2018-02-12T02:13:33.103Z,2.21
2018-02-12T02:16:00.896Z,2.20
2018-02-12T02:18:28.509Z,2.11
2018-02-12T02:20:56.165Z,2.07
2018-02-12T02:23:23.709Z,2.08
2018-02-12T02:25:51.259Z,2.09
2018-02-12T02:28:18.814Z,2.09
2018-02-12T02:30:46.445Z,2.08
2018-02-12T02:33:14.006Z,2.08
2018-02-12T02:35:41.670Z,1.99
2018-02-12T02:38:09.294Z,2.03
2018-02-12T02:40:36.919Z,2.02
2018-02-12T02:43:04.491Z,2.03
2018-02-12T02:45:32.068Z,2.08
2018-02-12T02:47:59.686Z,2.05
2018-02-12T02:50:27.255Z,2.07
2018-02-12T02:52:54.873Z,2.06
2018-02-12T02:55:22.441Z,2.09
2018-02-12T02:57:50.067Z,2.04
2018-02-12T03:00:17.698Z,2.06
2018-02-12T03:02:45.263Z,2.07
2018-02-12T03:05:12.882Z,2.09
2018-02-12T03:07:40.446Z,2.11
2018-02-12T03:10:08.001Z,2.11
2018-02-12T03:12:35.571Z,2.11
2018-02-12T03:15:03.137Z,2.12
2018-02-12T03:17:30.716Z,2.11
2018-02-12T03:19:58.282Z,2.12
2018-02-12T03:22:25.966Z,2.12
2018-02-12T03:24:53.709Z,2.12
2018-02-12T03:27:21.301Z,2.10
2018-02-12T03:29:48.945Z,2.09
2018-02-12T03:32:16.509Z,2.09
2018-02-12T03:34:44.074Z,2.09
2018-02-12T03:37:11.696Z,2.09
2018-02-12T03:39:39.309Z,2.13
2018-02-12T03:42:06.869Z,2.15
2018-02-12T03:44:34.414Z,2.16
2018-02-12T03:47:02.036Z,2.18
2018-02-12T03:49:29.579Z,2.15
2018-02-12T03:51:57.149Z,2.14
2018-02-12T03:54:24.819Z,2.15
2018-02-12T03:56:52.506Z,2.16
2018-02-12T03:59:20.129Z,2.16
2018-02-12T04:01:47.698Z,2.16
2018-02-12T04:04:15.280Z,2.14
2018-02-12T04:06:42.910Z,2.11
2018-02-12T04:09:10.562Z,2.12
2018-02-12T04:11:38.125Z,2.14
2018-02-12T04:14:05.754Z,2.13
2018-02-12T04:16:33.310Z,2.10
2018-02-12T04:19:00.885Z,2.09
2018-02-12T04:21:28.515Z,2.12
2018-02-12T04:23:56.134Z,2.14
2018-02-12T04:26:23.705Z,2.17
2018-02-12T04:28:51.313Z,2.11
2018-02-12T04:31:19.004Z,2.13
2018-02-12T04:33:46.649Z,2.14
2018-02-12T04:36:14.214Z,2.14
2018-02-12T04:38:41.786Z,2.18
2018-02-12T04:41:09.411Z,2.15
2018-02-12T04:43:36.981Z,2.15
2018-02-12T04:46:04.537Z,2.13
2018-02-12T04:48:32.177Z,2.13
2018-02-12T04:50:59.747Z,2.15
2018-02-12T04:53:27.309Z,2.19
2018-02-12T04:55:54.880Z,2.17
2018-02-12T04:58:22.498Z,2.16
2018-02-12T05:00:50.084Z,2.18
2018-02-12T05:03:17.627Z,2.23
2018-02-12T05:05:45.253Z,2.24
2018-02-12T05:08:12.893Z,2.22
2018-02-12T05:10:40.546Z,2.23
2018-02-12T05:13:08.128Z,2.27
2018-02-12T05:15:35.675Z,2.30
2018-02-12T05:18:03.298Z,2.33
2018-02-12T05:20:30.859Z,2.34
2018-02-12T05:22:58.463Z,2.35
2018-02-12T05:25:26.026Z,2.36
2018-02-12T05:27:53.585Z,2.38
2018-02-12T05:30:21.222Z,2.38
2018-02-12T05:32:48.852Z,2.36
2018-02-12T05:35:16.557Z,2.38
2018-02-12T05:37:44.130Z,2.41
2018-02-12T05:40:11.758Z,2.43
2018-02-12T05:42:39.398Z,2.50
2018-02-12T05:45:06.961Z,2.50
2018-02-12T05:47:34.579Z,2.51
2018-02-12T05:50:02.140Z,2.54
2018-02-12T05:52:29.702Z,2.58
2018-02-12T05:54:57.254Z,2.56
2018-02-12T05:57:24.815Z,2.55
2018-02-12T05:59:52.390Z,2.57
2018-02-12T06:02:20.015Z,2.58
2018-02-12T06:04:47.725Z,2.56
2018-02-12T06:07:15.286Z,2.53
2018-02-12T06:09:42.912Z,2.60
2018-02-12T06:12:10.465Z,2.68
2018-02-12T06:14:38.010Z,2.74
2018-02-12T06:17:05.582Z,2.71
2018-02-12T06:19:33.203Z,2.78
2018-02-12T06:22:00.800Z,2.75
2018-02-12T06:24:28.358Z,2.89
2018-02-12T06:26:55.933Z,2.95
2018-02-12T06:29:23.510Z,2.97
2018-02-12T06:31:51.070Z,3.04
2018-02-12T06:34:18.698Z,3.15
2018-02-12T06:36:46.318Z,3.24
2018-02-12T06:39:13.937Z,3.26
2018-02-12T06:41:41.505Z,3.26
2018-02-12T06:44:09.069Z,3.36
2018-02-12T06:46:36.637Z,3.44
2018-02-12T06:49:04.200Z,3.41
2018-02-12T06:51:31.792Z,3.45
2018-02-12T06:53:59.353Z,3.59
2018-02-12T06:56:26.982Z,3.69
2018-02-12T06:58:54.537Z,3.72
2018-02-12T07:01:22.158Z,3.85
2018-02-12T07:03:49.743Z,4.02
2018-02-12T07:06:17.319Z,4.10
2018-02-12T07:08:44.950Z,4.30
2018-02-12T07:11:12.555Z,4.44
2018-02-12T07:13:40.235Z,4.52
2018-02-12T07:16:07.863Z,4.59
2018-02-12T07:18:35.428Z,4.65
2018-02-12T07:21:02.998Z,4.79
2018-02-12T07:23:30.575Z,4.70
2018-02-12T07:25:58.132Z,4.79
2018-02-12T07:28:25.746Z,4.83
2018-02-12T07:30:53.374Z,4.85
2018-02-12T07:33:20.998Z,4.98
2018-02-12T07:35:48.605Z,5.06
2018-02-12T07:38:16.181Z,5.18
2018-02-12T07:40:43.741Z,5.18
2018-02-12T07:43:11.317Z,5.19
2018-02-12T07:45:38.893Z,5.23
2018-02-12T07:48:06.537Z,5.31
2018-02-12T07:50:34.110Z,5.47
2018-02-12T07:53:01.750Z,5.45
2018-02-12T07:55:29.329Z,5.57
2018-02-12T07:57:56.960Z,5.68
2018-02-12T08:00:24.542Z,5.86
2018-02-12T08:02:52.132Z,5.85
2018-02-12T08:05:19.756Z,5.73
2018-02-12T08:07:47.306Z,5.72
2018-02-12T08:10:14.878Z,5.81
2018-02-12T08:12:42.480Z,6.14
2018-02-12T08:15:10.857Z,6.35
2018-02-12T08:17:38.435Z,6.58
2018-02-12T08:20:06.015Z,6.74
2018-02-12T08:22:33.637Z,6.94
2018-02-12T08:25:01.206Z,7.07
2018-02-12T08:27:28.782Z,7.00
2018-02-12T08:29:56.364Z,7.13
2018-02-12T08:32:23.987Z,7.21
2018-02-12T08:34:51.634Z,7.49
2018-02-12T08:37:19.205Z,7.03
2018-02-12T08:39:46.868Z,7.00
2018-02-12T08:42:14.507Z,7.04
2018-02-12T08:44:42.078Z,7.00
2018-02-12T08:47:09.660Z,6.98
2018-02-12T08:49:37.230Z,7.12
2018-02-12T08:52:04.909Z,7.16
2018-02-12T08:54:32.494Z,7.34
2018-02-12T08:57:00.159Z,7.53
2018-02-12T08:59:27.748Z,7.83
2018-02-12T09:01:55.332Z,8.00
2018-02-12T09:04:22.930Z,8.05
2018-02-12T09:06:50.565Z,7.99
2018-02-12T09:09:18.138Z,7.96
2018-02-12T09:11:45.718Z,7.94
2018-02-12T09:14:13.335Z,7.91
2018-02-12T09:16:40.967Z,7.88
2018-02-12T09:19:08.602Z,7.94
2018-02-12T09:21:36.249Z,7.83
2018-02-12T09:24:03.827Z,7.67
2018-02-12T09:26:31.508Z,7.70
2018-02-12T09:28:59.078Z,7.71
2018-02-12T09:31:26.646Z,7.68
2018-02-12T09:33:54.225Z,7.77
2018-02-12T09:36:21.839Z,7.74
2018-02-12T09:38:49.458Z,7.60
2018-02-12T09:41:17.021Z,7.68
2018-02-12T09:43:44.589Z,7.88
2018-02-12T09:46:12.193Z,7.87
2018-02-12T09:48:39.765Z,7.87
2018-02-12T09:51:07.402Z,8.14
2018-02-12T09:53:34.974Z,8.07
2018-02-12T09:56:02.620Z,7.73
2018-02-12T09:58:30.204Z,8.05
2018-02-12T10:00:57.785Z,8.36
2018-02-12T10:03:25.433Z,8.68
2018-02-12T10:05:53.054Z,8.83
2018-02-12T10:08:21.487Z,8.37
2018-02-12T10:10:49.051Z,8.35
2018-02-12T10:13:16.738Z,8.33
2018-02-12T10:15:44.354Z,8.29
2018-02-12T10:18:11.978Z,8.59
2018-02-12T10:20:39.553Z,8.76
2018-02-12T10:23:07.118Z,8.78
2018-02-12T10:25:34.692Z,9.04
2018-02-12T10:28:02.274Z,9.18
2018-02-12T10:30:29.898Z,9.57
2018-02-12T10:32:57.519Z,9.88
2018-02-12T10:35:25.139Z,9.98
2018-02-12T10:37:52.722Z,10.00
2018-02-12T10:40:20.297Z,9.90
2018-02-12T10:42:47.914Z,9.94
2018-02-12T10:45:15.535Z,10.27
2018-02-12T10:47:43.205Z,10.16
2018-02-12T10:50:10.771Z,10.14
2018-02-12T10:52:38.338Z,9.88
2018-02-12T10:55:05.928Z,10.17
2018-02-12T10:57:33.490Z,9.81
2018-02-12T11:00:01.131Z,10.06
2018-02-12T11:02:28.709Z,9.93
2018-02-12T11:04:56.419Z,10.09
2018-02-12T11:07:23.986Z,10.44
2018-02-12T11:09:51.554Z,10.70
2018-02-12T11:12:19.138Z,10.70
2018-02-12T11:14:46.713Z,10.58
2018-02-12T11:17:14.355Z,10.65
2018-02-12T11:19:41.941Z,10.59
2018-02-12T11:22:09.486Z,10.66
2018-02-12T11:24:37.058Z,10.91
2018-02-12T11:27:04.688Z,11.22
2018-02-12T11:29:32.351Z,11.37
2018-02-12T11:32:00.027Z,11.48
2018-02-12T11:34:27.654Z,11.26
2018-02-12T11:36:55.250Z,11.00
2018-02-12T11:39:22.869Z,10.70
2018-02-12T11:41:50.502Z,10.81
2018-02-12T11:44:18.140Z,10.93
2018-02-12T11:46:45.712Z,10.96
2018-02-12T11:49:13.298Z,10.72
2018-02-12T11:51:40.870Z,10.69
2018-02-12T11:54:08.507Z,10.75
2018-02-12T11:56:36.070Z,10.63
2018-02-12T11:59:03.702Z,10.60
2018-02-12T12:01:31.332Z,10.90
2018-02-12T12:03:58.905Z,10.90
2018-02-12T12:06:26.477Z,10.68
2018-02-12T12:08:54.039Z,10.38
2018-02-12T12:11:21.618Z,10.33
2018-02-12T12:13:49.244Z,10.32
2018-02-12T12:16:16.876Z,10.35
2018-02-12T12:18:44.445Z,10.18
2018-02-12T12:21:12.019Z,10.38
2018-02-12T12:23:39.651Z,10.54
2018-02-12T12:26:07.279Z,10.33
2018-02-12T12:28:34.914Z,10.46
2018-02-12T12:31:02.553Z,10.60
2018-02-12T12:33:30.181Z,10.61
2018-02-12T12:35:57.750Z,10.30
2018-02-12T12:38:25.387Z,9.98
2018-02-12T12:40:53.198Z,10.11
2018-02-12T12:43:20.826Z,10.17
2018-02-12T12:45:48.454Z,9.97
2018-02-12T12:48:16.024Z,10.14
2018-02-12T12:50:43.717Z,10.21
2018-02-12T12:53:11.279Z,10.38
2018-02-12T12:55:38.851Z,10.44
2018-02-12T12:58:06.434Z,10.28
2018-02-12T13:00:34.002Z,10.16
2018-02-12T13:03:01.567Z,10.11
2018-02-12T13:05:29.190Z,9.93
2018-02-12T13:07:56.903Z,9.66
2018-02-12T13:10:24.527Z,9.51
2018-02-12T13:12:52.086Z,9.44
2018-02-12T13:15:19.708Z,9.37
2018-02-12T13:17:47.588Z,9.25
2018-02-12T13:20:15.223Z,9.03
2018-02-12T13:22:42.853Z,9.23
2018-02-12T13:25:10.472Z,9.35
2018-02-12T13:27:38.091Z,9.17
2018-02-12T13:30:05.720Z,9.07
2018-02-12T13:32:33.315Z,9.01
2018-02-12T13:35:00.892Z,8.81
2018-02-12T13:37:28.488Z,8.64
2018-02-12T13:39:56.118Z,8.60
2018-02-12T13:42:23.747Z,8.57
2018-02-12T13:44:51.312Z,8.50
2018-02-12T13:47:18.895Z,8.51
2018-02-12T13:49:46.607Z,8.39
2018-02-12T13:52:14.210Z,8.49
2018-02-12T13:54:41.808Z,8.49
2018-02-12T13:57:09.461Z,8.34
2018-02-12T13:59:37.193Z,8.30
2018-02-12T14:02:04.795Z,8.39
2018-02-12T14:04:32.379Z,8.45
2018-02-12T14:07:00.023Z,8.32
2018-02-12T14:09:27.590Z,8.02
2018-02-12T14:11:55.279Z,7.91
2018-02-12T14:14:22.846Z,7.97
2018-02-12T14:16:50.599Z,7.91
2018-02-12T14:19:18.214Z,7.87
2018-02-12T14:21:45.842Z,7.89
2018-02-12T14:24:13.486Z,7.95
2018-02-12T14:26:41.061Z,7.83
2018-02-12T14:29:08.626Z,7.78
2018-02-12T14:31:36.181Z,7.74
2018-02-12T14:34:03.806Z,7.70
2018-02-12T14:36:31.377Z,7.60
2018-02-12T14:38:58.996Z,7.55
2018-02-12T14:41:26.569Z,7.50
2018-02-12T14:43:54.139Z,7.42
2018-02-12T14:46:21.739Z,7.35
2018-02-12T14:48:49.323Z,7.31
2018-02-12T14:51:17.403Z,7.30
2018-02-12T14:53:44.988Z,7.21
2018-02-12T14:56:12.563Z,7.18
2018-02-12T14:58:40.154Z,7.14
2018-02-12T15:01:07.755Z,7.09
2018-02-12T15:03:35.333Z,7.01
2018-02-12T15:06:02.902Z,6.97
2018-02-12T15:08:30.682Z,6.93
2018-02-12T15:10:59.013Z,6.88
2018-02-12T15:13:26.590Z,6.85
2018-02-12T15:15:54.170Z,6.79
2018-02-12T15:18:21.806Z,6.68
2018-02-12T15:20:49.458Z,6.68
2018-02-12T15:23:17.119Z,6.61
2018-02-12T15:25:44.891Z,6.58
2018-02-12T15:28:12.518Z,6.53
2018-02-12T15:30:40.083Z,6.50
2018-02-12T15:33:07.651Z,6.49
2018-02-12T15:35:35.277Z,6.44
2018-02-12T15:38:03.424Z,6.41
2018-02-12T15:40:31.017Z,6.41
2018-02-12T15:42:58.650Z,6.36
2018-02-12T15:45:26.267Z,6.32
2018-02-12T15:47:53.879Z,6.30
2018-02-12T15:50:21.522Z,6.27
2018-02-12T15:52:49.157Z,6.24
2018-02-12T15:55:16.734Z,6.22
2018-02-12T15:57:44.307Z,6.16
2018-02-12T16:00:11.964Z,6.11
2018-02-12T16:02:39.546Z,6.07
2018-02-12T16:05:07.121Z,6.01
2018-02-12T16:07:34.751Z,5.93
2018-02-12T16:10:02.337Z,5.80
2018-02-12T16:12:29.926Z,5.65
2018-02-12T16:15:10.204Z,5.49
2018-02-12T16:17:37.939Z,5.36
2018-02-12T16:20:05.610Z,5.30
2018-02-12T16:22:33.240Z,5.29
2018-02-12T16:25:00.858Z,5.33
2018-02-12T16:27:28.478Z,5.30
2018-02-12T16:29:56.112Z,5.34
2018-02-12T16:32:23.781Z,5.37
2018-02-12T16:34:51.509Z,5.40
2018-02-12T16:37:19.090Z,5.43
2018-02-12T16:39:46.700Z,5.40
2018-02-12T16:42:14.287Z,5.37
2018-02-12T16:44:41.970Z,5.38
2018-02-12T16:47:09.643Z,5.38
2018-02-12T16:49:37.224Z,5.40
2018-02-12T16:52:04.943Z,5.37
2018-02-12T16:54:32.538Z,5.32
2018-02-12T16:57:00.131Z,5.18
2018-02-12T16:59:27.731Z,5.16
2018-02-12T17:01:55.309Z,5.07
2018-02-12T17:04:22.895Z,5.02
2018-02-12T17:06:50.476Z,5.01
2018-02-12T17:09:18.798Z,4.96
2018-02-12T17:11:46.457Z,4.89
2018-02-12T17:14:14.095Z,4.76
2018-02-12T17:16:42.248Z,4.64
2018-02-12T17:19:09.879Z,4.52
2018-02-12T17:21:37.514Z,4.44
2018-02-12T17:24:05.087Z,4.31
2018-02-12T17:26:32.775Z,4.21
2018-02-12T17:29:01.223Z,4.12
2018-02-12T17:31:28.821Z,4.03
2018-02-12T17:33:56.472Z,3.95
2018-02-12T17:36:24.335Z,3.91
2018-02-12T17:38:52.096Z,3.85
2018-02-12T17:41:19.722Z,3.77
2018-02-12T17:43:47.330Z,3.68
2018-02-12T17:46:14.915Z,3.63
2018-02-12T17:48:42.491Z,3.63
2018-02-12T17:51:10.073Z,3.64
2018-02-12T17:53:37.658Z,3.63
2018-02-12T17:56:05.248Z,3.67
2018-02-12T17:58:32.813Z,3.69
2018-02-12T18:01:00.452Z,3.68
2018-02-12T18:03:28.078Z,3.67
2018-02-12T18:05:55.644Z,3.59
2018-02-12T18:08:23.871Z,3.51
2018-02-12T18:10:51.668Z,3.40
2018-02-12T18:13:19.258Z,3.30
2018-02-12T18:15:46.891Z,3.21
2018-02-12T18:18:14.518Z,3.26
2018-02-12T18:20:42.093Z,3.30
2018-02-12T18:23:09.666Z,3.32
2018-02-12T18:25:37.238Z,3.39
2018-02-12T18:28:05.311Z,3.37
2018-02-12T18:30:32.930Z,3.26
2018-02-12T18:33:00.519Z,3.23
2018-02-12T18:35:28.165Z,3.19
2018-02-12T18:37:55.734Z,3.15
2018-02-12T18:40:24.219Z,3.09
2018-02-12T18:42:51.862Z,3.05
2018-02-12T18:45:19.434Z,2.99
2018-02-12T18:47:47.130Z,2.95
2018-02-12T18:50:14.710Z,2.94
2018-02-12T18:52:43.679Z,2.92
2018-02-12T18:55:11.253Z,2.93
2018-02-12T18:57:38.888Z,2.94
2018-02-12T19:00:06.510Z,2.92
2018-02-12T19:02:34.123Z,2.88
2018-02-12T19:05:01.818Z,2.81
2018-02-12T19:07:29.450Z,2.74
2018-02-12T19:09:57.181Z,2.66
2018-02-12T19:12:24.814Z,2.55
2018-02-12T19:14:52.382Z,2.51
2018-02-12T19:17:19.971Z,2.44
2018-02-12T19:19:47.569Z,2.34
2018-02-12T19:22:15.166Z,2.31
2018-02-12T19:24:42.738Z,2.26
2018-02-12T19:27:10.374Z,2.21
2018-02-12T19:29:37.945Z,2.15
2018-02-12T19:32:05.509Z,2.05
2018-02-12T19:34:33.094Z,1.99
2018-02-12T19:37:00.665Z,1.98
2018-02-12T19:39:28.227Z,1.96
2018-02-12T19:41:56.540Z,1.92
2018-02-12T19:44:24.190Z,1.85
2018-02-12T19:46:51.766Z,1.79
2018-02-12T19:49:19.357Z,1.76
2018-02-12T19:51:46.981Z,1.74
2018-02-12T19:54:14.643Z,1.71
2018-02-12T19:56:42.278Z,1.66
2018-02-12T19:59:09.850Z,1.60
2018-02-12T20:01:37.432Z,1.50
2018-02-12T20:04:05.060Z,1.43
2018-02-12T20:06:32.638Z,1.41
2018-02-12T20:09:00.256Z,1.37
2018-02-12T20:11:27.882Z,1.36
2018-02-12T20:13:55.464Z,1.29
2018-02-12T20:16:23.055Z,1.30
2018-02-12T20:18:50.612Z,1.26
2018-02-12T20:21:18.336Z,1.23
2018-02-12T20:23:45.958Z,1.17
2018-02-12T20:26:13.522Z,1.14
2018-02-12T20:28:41.111Z,1.10
2018-02-12T20:31:08.675Z,1.13
2018-02-12T20:33:36.247Z,1.12
2018-02-12T20:36:04.053Z,1.12
2018-02-12T20:38:31.630Z,1.15
2018-02-12T20:40:59.278Z,1.13
2018-02-12T20:43:26.862Z,1.10
2018-02-12T20:45:54.491Z,1.08
2018-02-12T20:48:22.150Z,1.07
2018-02-12T20:50:49.739Z,1.01
2018-02-12T20:53:17.314Z,1.03
2018-02-12T20:55:44.941Z,1.04
2018-02-12T20:58:12.502Z,1.05
2018-02-12T21:00:40.078Z,1.06
2018-02-12T21:03:07.695Z,1.05
2018-02-12T21:05:35.270Z,1.01
2018-02-12T21:08:02.838Z,0.98
2018-02-12T21:10:30.409Z,0.93
2018-02-12T21:12:57.969Z,0.90
2018-02-12T21:15:25.547Z,0.90
2018-02-12T21:17:53.127Z,0.87
2018-02-12T21:20:20.754Z,0.87
2018-02-12T21:22:48.325Z,0.83
2018-02-12T21:25:15.954Z,0.81
2018-02-12T21:27:43.527Z,0.79
2018-02-12T21:30:11.142Z,0.78
2018-02-12T21:32:38.797Z,0.81
2018-02-12T21:35:06.368Z,0.83
2018-02-12T21:37:34.025Z,0.85
2018-02-12T21:40:01.587Z,0.86
2018-02-12T21:42:29.151Z,0.88
2018-02-12T21:44:56.726Z,0.83
2018-02-12T21:47:24.341Z,0.75
2018-02-12T21:49:51.910Z,0.69
2018-02-12T21:52:19.482Z,0.64
2018-02-12T21:54:47.103Z,0.65
2018-02-12T21:57:14.726Z,0.65
2018-02-12T21:59:42.347Z,0.73
2018-02-12T22:02:09.958Z,0.73
2018-02-12T22:04:37.521Z,0.69
2018-02-12T22:07:05.142Z,0.73
2018-02-12T22:09:32.720Z,0.77
2018-02-12T22:12:00.343Z,0.80
2018-02-12T22:14:27.902Z,0.84
2018-02-12T22:16:55.466Z,0.92
2018-02-12T22:19:23.042Z,1.04
2018-02-12T22:21:50.589Z,1.13
2018-02-12T22:24:18.248Z,1.25
2018-02-12T22:26:45.884Z,1.42
2018-02-12T22:29:13.497Z,1.48
2018-02-12T22:31:41.053Z,1.54
2018-02-12T22:34:08.614Z,1.59
2018-02-12T22:36:36.281Z,1.62
2018-02-12T22:39:03.947Z,1.56
2018-02-12T22:41:31.513Z,1.55
2018-02-12T22:43:59.079Z,1.55
2018-02-12T22:46:26.696Z,1.61
2018-02-12T22:48:54.260Z,1.63
2018-02-12T22:51:21.883Z,1.61
2018-02-12T22:53:49.515Z,1.63
2018-02-12T22:56:17.086Z,1.65
2018-02-12T22:58:44.717Z,1.64
2018-02-12T23:01:12.274Z,1.67
2018-02-12T23:03:39.898Z,1.67
2018-02-12T23:06:07.453Z,1.65
2018-02-12T23:08:35.009Z,1.67
2018-02-12T23:11:02.637Z,1.72
2018-02-12T23:13:30.189Z,1.72
2018-02-12T23:15:57.791Z,1.67
2018-02-12T23:18:25.349Z,1.71
2018-02-12T23:20:52.937Z,1.82
2018-02-12T23:23:20.558Z,1.88
2018-02-12T23:25:48.268Z,1.93
2018-02-12T23:28:15.827Z,1.96
2018-02-12T23:30:43.397Z,1.99
2018-02-12T23:33:11.007Z,2.01
2018-02-12T23:35:38.541Z,2.05
2018-02-12T23:38:06.120Z,2.11
2018-02-12T23:40:33.742Z,2.15
2018-02-12T23:43:01.359Z,2.18
2018-02-12T23:45:28.923Z,2.19
2018-02-12T23:47:56.546Z,2.23
2018-02-12T23:50:24.174Z,2.29
2018-02-12T23:52:51.731Z,2.31
2018-02-12T23:55:19.282Z,2.37
2018-02-12T23:57:46.834Z,2.43
